sensor_id;sensor_type;location;lat;lon;timestamp;P1;durP1;ratioP1;P2;durP2;ratioP2
70106;SDS011;57473;37.508;15.080;2023-03-21T00:00:39;28.60;;;18.38;;
70106;SDS011;57473;37.508;15.080;2023-03-21T00:03:07;31.90;;;19.23;;
70106;SDS011;57473;37.508;15.080;2023-03-21T00:05:38;34.63;;;19.67;;
70106;SDS011;57473;37.508;15.080;2023-03-21T00:08:07;30.83;;;19.17;;
70106;SDS011;57473;37.508;15.080;2023-03-21T00:10:35;35.67;;;19.60;;
70106;SDS011;57473;37.508;15.080;2023-03-21T00:13:13;34.53;;;21.10;;
70106;SDS011;57473;37.508;15.080;2023-03-21T00:15:42;34.70;;;19.52;;
70106;SDS011;57473;37.508;15.080;2023-03-21T00:18:43;32.95;;;19.35;;
70106;SDS011;57473;37.508;15.080;2023-03-21T00:21:16;36.58;;;20.55;;
70106;SDS011;57473;37.508;15.080;2023-03-21T00:24:05;34.35;;;18.40;;
70106;SDS011;57473;37.508;15.080;2023-03-21T00:26:33;33.10;;;19.65;;
70106;SDS011;57473;37.508;15.080;2023-03-21T00:29:01;36.67;;;19.30;;
70106;SDS011;57473;37.508;15.080;2023-03-21T00:31:28;35.28;;;20.55;;
70106;SDS011;57473;37.508;15.080;2023-03-21T00:33:56;32.08;;;18.70;;
70106;SDS011;57473;37.508;15.080;2023-03-21T00:36:23;30.80;;;18.42;;
70106;SDS011;57473;37.508;15.080;2023-03-21T00:38:52;34.92;;;20.73;;
70106;SDS011;57473;37.508;15.080;2023-03-21T00:41:20;30.23;;;18.98;;
70106;SDS011;57473;37.508;15.080;2023-03-21T00:44:06;30.58;;;19.25;;
70106;SDS011;57473;37.508;15.080;2023-03-21T00:46:34;32.55;;;20.13;;
70106;SDS011;57473;37.508;15.080;2023-03-21T00:51:46;31.77;;;18.13;;
70106;SDS011;57473;37.508;15.080;2023-03-21T00:54:17;33.95;;;19.52;;
70106;SDS011;57473;37.508;15.080;2023-03-21T00:56:45;31.98;;;19.40;;
70106;SDS011;57473;37.508;15.080;2023-03-21T00:59:12;31.13;;;19.77;;
70106;SDS011;57473;37.508;15.080;2023-03-21T01:01:41;29.33;;;18.52;;
70106;SDS011;57473;37.508;15.080;2023-03-21T01:04:09;32.05;;;18.83;;
70106;SDS011;57473;37.508;15.080;2023-03-21T01:06:40;35.33;;;19.40;;
70106;SDS011;57473;37.508;15.080;2023-03-21T01:09:19;34.20;;;20.17;;
70106;SDS011;57473;37.508;15.080;2023-03-21T01:11:49;32.58;;;19.52;;
70106;SDS011;57473;37.508;15.080;2023-03-21T01:14:18;31.40;;;19.48;;
70106;SDS011;57473;37.508;15.080;2023-03-21T01:16:52;32.25;;;18.13;;
70106;SDS011;57473;37.508;15.080;2023-03-21T01:19:21;31.83;;;19.30;;
70106;SDS011;57473;37.508;15.080;2023-03-21T01:22:14;33.75;;;20.00;;
70106;SDS011;57473;37.508;15.080;2023-03-21T01:24:41;36.70;;;21.42;;
70106;SDS011;57473;37.508;15.080;2023-03-21T01:27:22;34.65;;;19.30;;
70106;SDS011;57473;37.508;15.080;2023-03-21T01:29:50;34.83;;;20.10;;
70106;SDS011;57473;37.508;15.080;2023-03-21T01:32:17;35.08;;;19.73;;
70106;SDS011;57473;37.508;15.080;2023-03-21T01:34:45;34.88;;;19.17;;
70106;SDS011;57473;37.508;15.080;2023-03-21T01:37:12;31.83;;;18.48;;
70106;SDS011;57473;37.508;15.080;2023-03-21T01:39:45;34.03;;;20.27;;
70106;SDS011;57473;37.508;15.080;2023-03-21T01:42:12;32.88;;;18.80;;
70106;SDS011;57473;37.508;15.080;2023-03-21T01:44:52;32.80;;;18.95;;
70106;SDS011;57473;37.508;15.080;2023-03-21T01:47:34;34.08;;;20.13;;
70106;SDS011;57473;37.508;15.080;2023-03-21T01:50:16;29.73;;;18.20;;
70106;SDS011;57473;37.508;15.080;2023-03-21T01:53:06;26.35;;;16.45;;
70106;SDS011;57473;37.508;15.080;2023-03-21T01:55:34;30.85;;;18.92;;
70106;SDS011;57473;37.508;15.080;2023-03-21T01:58:11;30.83;;;18.17;;
70106;SDS011;57473;37.508;15.080;2023-03-21T02:00:57;29.65;;;17.88;;
70106;SDS011;57473;37.508;15.080;2023-03-21T02:03:34;30.38;;;16.98;;
70106;SDS011;57473;37.508;15.080;2023-03-21T02:06:46;32.20;;;18.90;;
70106;SDS011;57473;37.508;15.080;2023-03-21T02:09:33;32.10;;;18.63;;
70106;SDS011;57473;37.508;15.080;2023-03-21T02:12:08;35.78;;;19.98;;
70106;SDS011;57473;37.508;15.080;2023-03-21T02:14:36;36.90;;;21.63;;
70106;SDS011;57473;37.508;15.080;2023-03-21T02:28:45;37.63;;;21.73;;
70106;SDS011;57473;37.508;15.080;2023-03-21T02:34:23;37.70;;;22.90;;
70106;SDS011;57473;37.508;15.080;2023-03-21T02:43:02;36.88;;;21.52;;
70106;SDS011;57473;37.508;15.080;2023-03-21T02:45:50;47.00;;;24.88;;
70106;SDS011;57473;37.508;15.080;2023-03-21T02:48:26;43.50;;;23.50;;
70106;SDS011;57473;37.508;15.080;2023-03-21T02:51:15;38.65;;;22.73;;
70106;SDS011;57473;37.508;15.080;2023-03-21T02:53:48;39.70;;;24.17;;
70106;SDS011;57473;37.508;15.080;2023-03-21T02:56:41;43.17;;;23.80;;
70106;SDS011;57473;37.508;15.080;2023-03-21T02:59:10;43.75;;;23.92;;
70106;SDS011;57473;37.508;15.080;2023-03-21T03:01:40;43.92;;;24.88;;
70106;SDS011;57473;37.508;15.080;2023-03-21T03:04:18;40.08;;;23.55;;
70106;SDS011;57473;37.508;15.080;2023-03-21T03:09:29;43.28;;;24.45;;
70106;SDS011;57473;37.508;15.080;2023-03-21T03:15:33;47.85;;;24.60;;
70106;SDS011;57473;37.508;15.080;2023-03-21T03:23:29;44.38;;;25.13;;
70106;SDS011;57473;37.508;15.080;2023-03-21T03:28:58;43.80;;;24.08;;
70106;SDS011;57473;37.508;15.080;2023-03-21T03:31:32;42.60;;;24.38;;
70106;SDS011;57473;37.508;15.080;2023-03-21T03:34:15;47.00;;;24.63;;
70106;SDS011;57473;37.508;15.080;2023-03-21T03:36:49;41.42;;;22.95;;
70106;SDS011;57473;37.508;15.080;2023-03-21T03:39:36;50.15;;;26.10;;
70106;SDS011;57473;37.508;15.080;2023-03-21T03:42:16;42.22;;;23.00;;
70106;SDS011;57473;37.508;15.080;2023-03-21T03:45:06;41.17;;;22.50;;
70106;SDS011;57473;37.508;15.080;2023-03-21T03:50:30;42.75;;;23.15;;
70106;SDS011;57473;37.508;15.080;2023-03-21T03:53:16;42.22;;;22.73;;
70106;SDS011;57473;37.508;15.080;2023-03-21T03:55:54;40.15;;;22.75;;
70106;SDS011;57473;37.508;15.080;2023-03-21T03:58:23;45.53;;;24.70;;
70106;SDS011;57473;37.508;15.080;2023-03-21T04:01:10;46.00;;;25.05;;
70106;SDS011;57473;37.508;15.080;2023-03-21T04:03:39;44.03;;;24.23;;
70106;SDS011;57473;37.508;15.080;2023-03-21T04:06:17;41.63;;;23.27;;
70106;SDS011;57473;37.508;15.080;2023-03-21T04:08:49;42.33;;;22.25;;
70106;SDS011;57473;37.508;15.080;2023-03-21T04:11:18;36.67;;;21.33;;
70106;SDS011;57473;37.508;15.080;2023-03-21T04:13:50;37.45;;;21.73;;
70106;SDS011;57473;37.508;15.080;2023-03-21T04:16:22;35.38;;;21.55;;
70106;SDS011;57473;37.508;15.080;2023-03-21T04:18:50;39.88;;;22.00;;
70106;SDS011;57473;37.508;15.080;2023-03-21T04:21:18;41.92;;;24.80;;
70106;SDS011;57473;37.508;15.080;2023-03-21T04:23:47;42.55;;;24.88;;
70106;SDS011;57473;37.508;15.080;2023-03-21T04:26:14;48.13;;;26.27;;
70106;SDS011;57473;37.508;15.080;2023-03-21T04:28:52;43.42;;;24.30;;
70106;SDS011;57473;37.508;15.080;2023-03-21T04:31:22;43.05;;;23.10;;
70106;SDS011;57473;37.508;15.080;2023-03-21T04:34:13;41.95;;;23.98;;
70106;SDS011;57473;37.508;15.080;2023-03-21T04:36:45;45.78;;;24.63;;
70106;SDS011;57473;37.508;15.080;2023-03-21T04:39:14;42.90;;;24.70;;
70106;SDS011;57473;37.508;15.080;2023-03-21T04:41:45;39.40;;;22.90;;
70106;SDS011;57473;37.508;15.080;2023-03-21T04:44:14;39.63;;;22.65;;
70106;SDS011;57473;37.508;15.080;2023-03-21T04:46:43;40.30;;;22.80;;
70106;SDS011;57473;37.508;15.080;2023-03-21T04:49:11;38.33;;;21.95;;
70106;SDS011;57473;37.508;15.080;2023-03-21T04:51:41;40.97;;;23.15;;
70106;SDS011;57473;37.508;15.080;2023-03-21T04:54:15;44.35;;;24.10;;
70106;SDS011;57473;37.508;15.080;2023-03-21T04:56:43;37.97;;;22.30;;
70106;SDS011;57473;37.508;15.080;2023-03-21T04:59:12;41.13;;;23.33;;
70106;SDS011;57473;37.508;15.080;2023-03-21T05:01:41;39.70;;;23.17;;
70106;SDS011;57473;37.508;15.080;2023-03-21T05:04:10;40.35;;;22.92;;
70106;SDS011;57473;37.508;15.080;2023-03-21T05:06:39;36.35;;;20.95;;
70106;SDS011;57473;37.508;15.080;2023-03-21T05:09:10;39.67;;;21.58;;
70106;SDS011;57473;37.508;15.080;2023-03-21T05:11:38;42.03;;;22.73;;
70106;SDS011;57473;37.508;15.080;2023-03-21T05:14:09;37.47;;;21.13;;
70106;SDS011;57473;37.508;15.080;2023-03-21T05:16:40;38.20;;;21.60;;
70106;SDS011;57473;37.508;15.080;2023-03-21T05:19:24;35.55;;;21.13;;
70106;SDS011;57473;37.508;15.080;2023-03-21T05:24:31;39.75;;;22.58;;
70106;SDS011;57473;37.508;15.080;2023-03-21T05:26:59;39.72;;;22.50;;
70106;SDS011;57473;37.508;15.080;2023-03-21T05:32:02;40.33;;;22.98;;
70106;SDS011;57473;37.508;15.080;2023-03-21T05:34:29;42.97;;;23.20;;
70106;SDS011;57473;37.508;15.080;2023-03-21T05:36:58;39.63;;;22.73;;
70106;SDS011;57473;37.508;15.080;2023-03-21T05:39:40;42.78;;;23.75;;
70106;SDS011;57473;37.508;15.080;2023-03-21T05:42:15;42.28;;;24.35;;
70106;SDS011;57473;37.508;15.080;2023-03-21T05:44:45;41.40;;;24.02;;
70106;SDS011;57473;37.508;15.080;2023-03-21T05:47:14;44.60;;;24.90;;
70106;SDS011;57473;37.508;15.080;2023-03-21T05:49:45;41.58;;;23.45;;
70106;SDS011;57473;37.508;15.080;2023-03-21T05:52:13;38.95;;;22.98;;
70106;SDS011;57473;37.508;15.080;2023-03-21T05:54:43;41.88;;;24.73;;
70106;SDS011;57473;37.508;15.080;2023-03-21T05:57:11;39.78;;;24.58;;
70106;SDS011;57473;37.508;15.080;2023-03-21T05:59:57;40.17;;;23.95;;
70106;SDS011;57473;37.508;15.080;2023-03-21T06:02:25;39.47;;;24.58;;
70106;SDS011;57473;37.508;15.080;2023-03-21T06:04:59;40.22;;;23.00;;
70106;SDS011;57473;37.508;15.080;2023-03-21T06:07:26;40.05;;;22.92;;
70106;SDS011;57473;37.508;15.080;2023-03-21T06:09:54;41.15;;;23.88;;
70106;SDS011;57473;37.508;15.080;2023-03-21T06:12:21;38.45;;;22.92;;
70106;SDS011;57473;37.508;15.080;2023-03-21T06:15:22;37.45;;;21.35;;
70106;SDS011;57473;37.508;15.080;2023-03-21T06:18:13;34.58;;;19.90;;
70106;SDS011;57473;37.508;15.080;2023-03-21T06:20:51;32.10;;;19.45;;
70106;SDS011;57473;37.508;15.080;2023-03-21T06:23:20;31.30;;;17.98;;
70106;SDS011;57473;37.508;15.080;2023-03-21T06:25:48;30.90;;;18.67;;
70106;SDS011;57473;37.508;15.080;2023-03-21T06:28:15;30.58;;;18.80;;
70106;SDS011;57473;37.508;15.080;2023-03-21T06:30:43;32.95;;;18.90;;
70106;SDS011;57473;37.508;15.080;2023-03-21T06:33:23;26.85;;;16.77;;
70106;SDS011;57473;37.508;15.080;2023-03-21T06:35:54;29.85;;;16.67;;
70106;SDS011;57473;37.508;15.080;2023-03-21T06:38:24;30.83;;;17.20;;
70106;SDS011;57473;37.508;15.080;2023-03-21T06:40:52;33.03;;;19.63;;
70106;SDS011;57473;37.508;15.080;2023-03-21T06:43:22;28.98;;;17.48;;
70106;SDS011;57473;37.508;15.080;2023-03-21T06:45:49;28.45;;;18.23;;
70106;SDS011;57473;37.508;15.080;2023-03-21T06:48:17;25.67;;;17.27;;
70106;SDS011;57473;37.508;15.080;2023-03-21T06:50:49;25.42;;;15.80;;
70106;SDS011;57473;37.508;15.080;2023-03-21T06:53:19;25.75;;;16.45;;
70106;SDS011;57473;37.508;15.080;2023-03-21T06:56:26;26.10;;;15.88;;
70106;SDS011;57473;37.508;15.080;2023-03-21T06:58:53;26.98;;;15.85;;
70106;SDS011;57473;37.508;15.080;2023-03-21T07:01:44;25.10;;;15.93;;
70106;SDS011;57473;37.508;15.080;2023-03-21T07:04:12;26.17;;;15.55;;
70106;SDS011;57473;37.508;15.080;2023-03-21T07:06:39;29.45;;;15.40;;
70106;SDS011;57473;37.508;15.080;2023-03-21T07:09:08;26.98;;;16.02;;
70106;SDS011;57473;37.508;15.080;2023-03-21T07:11:36;28.88;;;15.50;;
70106;SDS011;57473;37.508;15.080;2023-03-21T07:14:04;20.88;;;14.55;;
70106;SDS011;57473;37.508;15.080;2023-03-21T07:16:32;24.90;;;14.95;;
70106;SDS011;57473;37.508;15.080;2023-03-21T07:18:59;22.45;;;14.77;;
70106;SDS011;57473;37.508;15.080;2023-03-21T07:21:27;27.30;;;14.77;;
70106;SDS011;57473;37.508;15.080;2023-03-21T07:23:54;22.35;;;13.55;;
70106;SDS011;57473;37.508;15.080;2023-03-21T07:26:22;23.95;;;13.30;;
70106;SDS011;57473;37.508;15.080;2023-03-21T07:28:49;21.67;;;12.60;;
70106;SDS011;57473;37.508;15.080;2023-03-21T07:31:16;22.92;;;13.20;;
70106;SDS011;57473;37.508;15.080;2023-03-21T07:33:46;19.52;;;11.65;;
70106;SDS011;57473;37.508;15.080;2023-03-21T07:36:14;22.95;;;12.30;;
70106;SDS011;57473;37.508;15.080;2023-03-21T07:38:45;18.15;;;10.43;;
70106;SDS011;57473;37.508;15.080;2023-03-21T07:41:14;18.08;;;10.30;;
70106;SDS011;57473;37.508;15.080;2023-03-21T07:43:41;20.40;;;10.75;;
70106;SDS011;57473;37.508;15.080;2023-03-21T07:46:09;17.75;;;10.32;;
70106;SDS011;57473;37.508;15.080;2023-03-21T07:48:36;15.63;;;9.80;;
70106;SDS011;57473;37.508;15.080;2023-03-21T07:51:05;17.58;;;9.50;;
70106;SDS011;57473;37.508;15.080;2023-03-21T07:53:34;13.73;;;9.40;;
70106;SDS011;57473;37.508;15.080;2023-03-21T07:56:01;15.23;;;9.15;;
70106;SDS011;57473;37.508;15.080;2023-03-21T07:58:29;14.55;;;9.73;;
70106;SDS011;57473;37.508;15.080;2023-03-21T08:00:59;15.38;;;9.10;;
70106;SDS011;57473;37.508;15.080;2023-03-21T08:03:27;12.82;;;8.63;;
70106;SDS011;57473;37.508;15.080;2023-03-21T08:05:57;11.85;;;8.05;;
70106;SDS011;57473;37.508;15.080;2023-03-21T08:08:26;17.15;;;7.90;;
70106;SDS011;57473;37.508;15.080;2023-03-21T08:10:54;11.10;;;7.57;;
70106;SDS011;57473;37.508;15.080;2023-03-21T08:13:22;10.82;;;7.30;;
70106;SDS011;57473;37.508;15.080;2023-03-21T08:15:50;15.75;;;9.73;;
70106;SDS011;57473;37.508;15.080;2023-03-21T08:18:17;10.25;;;7.50;;
70106;SDS011;57473;37.508;15.080;2023-03-21T08:20:44;10.20;;;7.13;;
70106;SDS011;57473;37.508;15.080;2023-03-21T08:23:12;9.50;;;6.88;;
70106;SDS011;57473;37.508;15.080;2023-03-21T08:25:39;11.07;;;7.28;;
70106;SDS011;57473;37.508;15.080;2023-03-21T08:28:07;11.57;;;7.18;;
70106;SDS011;57473;37.508;15.080;2023-03-21T08:30:34;13.68;;;7.97;;
70106;SDS011;57473;37.508;15.080;2023-03-21T08:33:03;9.85;;;7.47;;
70106;SDS011;57473;37.508;15.080;2023-03-21T08:35:30;11.50;;;7.30;;
70106;SDS011;57473;37.508;15.080;2023-03-21T08:37:57;11.77;;;7.70;;
70106;SDS011;57473;37.508;15.080;2023-03-21T08:40:25;10.82;;;6.97;;
70106;SDS011;57473;37.508;15.080;2023-03-21T08:42:52;12.25;;;6.63;;
70106;SDS011;57473;37.508;15.080;2023-03-21T08:45:20;11.57;;;6.53;;
70106;SDS011;57473;37.508;15.080;2023-03-21T08:47:48;12.15;;;6.70;;
70106;SDS011;57473;37.508;15.080;2023-03-21T08:50:20;13.40;;;6.28;;
70106;SDS011;57473;37.508;15.080;2023-03-21T08:52:49;11.88;;;6.45;;
70106;SDS011;57473;37.508;15.080;2023-03-21T08:55:17;12.10;;;8.90;;
70106;SDS011;57473;37.508;15.080;2023-03-21T08:57:45;12.43;;;7.28;;
70106;SDS011;57473;37.508;15.080;2023-03-21T09:00:13;13.05;;;6.60;;
70106;SDS011;57473;37.508;15.080;2023-03-21T09:02:44;9.57;;;6.28;;
70106;SDS011;57473;37.508;15.080;2023-03-21T09:05:14;12.77;;;6.82;;
70106;SDS011;57473;37.508;15.080;2023-03-21T09:07:42;11.07;;;7.18;;
70106;SDS011;57473;37.508;15.080;2023-03-21T09:10:12;12.18;;;7.93;;
70106;SDS011;57473;37.508;15.080;2023-03-21T09:12:47;12.32;;;7.63;;
70106;SDS011;57473;37.508;15.080;2023-03-21T09:15:19;9.05;;;6.10;;
70106;SDS011;57473;37.508;15.080;2023-03-21T09:17:47;10.93;;;6.47;;
70106;SDS011;57473;37.508;15.080;2023-03-21T09:20:19;10.30;;;6.78;;
70106;SDS011;57473;37.508;15.080;2023-03-21T09:22:51;13.93;;;6.05;;
70106;SDS011;57473;37.508;15.080;2023-03-21T09:25:19;8.38;;;5.75;;
70106;SDS011;57473;37.508;15.080;2023-03-21T09:27:47;14.93;;;6.63;;
70106;SDS011;57473;37.508;15.080;2023-03-21T09:30:15;10.82;;;7.18;;
70106;SDS011;57473;37.508;15.080;2023-03-21T09:32:46;14.38;;;8.48;;
70106;SDS011;57473;37.508;15.080;2023-03-21T09:35:15;28.10;;;15.38;;
70106;SDS011;57473;37.508;15.080;2023-03-21T09:37:44;18.17;;;8.23;;
70106;SDS011;57473;37.508;15.080;2023-03-21T09:40:15;13.82;;;6.95;;
70106;SDS011;57473;37.508;15.080;2023-03-21T09:45:21;10.52;;;7.20;;
70106;SDS011;57473;37.508;15.080;2023-03-21T09:48:03;10.15;;;6.75;;
70106;SDS011;57473;37.508;15.080;2023-03-21T09:50:33;12.85;;;7.65;;
70106;SDS011;57473;37.508;15.080;2023-03-21T09:55:50;10.80;;;6.88;;
70106;SDS011;57473;37.508;15.080;2023-03-21T09:58:33;13.23;;;8.10;;
70106;SDS011;57473;37.508;15.080;2023-03-21T10:01:09;15.00;;;8.27;;
70106;SDS011;57473;37.508;15.080;2023-03-21T10:04:00;11.98;;;6.82;;
70106;SDS011;57473;37.508;15.080;2023-03-21T10:06:33;11.15;;;7.15;;
70106;SDS011;57473;37.508;15.080;2023-03-21T10:09:07;13.55;;;6.30;;
70106;SDS011;57473;37.508;15.080;2023-03-21T10:14:34;7.80;;;5.88;;
70106;SDS011;57473;37.508;15.080;2023-03-21T10:22:41;7.68;;;5.35;;
70106;SDS011;57473;37.508;15.080;2023-03-21T10:25:22;13.18;;;6.72;;
70106;SDS011;57473;37.508;15.080;2023-03-21T10:28:03;9.85;;;5.18;;
70106;SDS011;57473;37.508;15.080;2023-03-21T10:30:39;8.40;;;5.30;;
70106;SDS011;57473;37.508;15.080;2023-03-21T10:33:16;8.25;;;6.03;;
70106;SDS011;57473;37.508;15.080;2023-03-21T10:35:52;10.00;;;6.40;;
70106;SDS011;57473;37.508;15.080;2023-03-21T10:38:37;12.52;;;6.18;;
70106;SDS011;57473;37.508;15.080;2023-03-21T10:41:11;7.15;;;4.85;;
70106;SDS011;57473;37.508;15.080;2023-03-21T10:43:39;7.28;;;5.53;;
70106;SDS011;57473;37.508;15.080;2023-03-21T10:46:09;12.07;;;5.85;;
70106;SDS011;57473;37.508;15.080;2023-03-21T10:48:40;17.40;;;6.47;;
70106;SDS011;57473;37.508;15.080;2023-03-21T10:51:18;13.55;;;6.15;;
70106;SDS011;57473;37.508;15.080;2023-03-21T10:53:54;11.80;;;9.80;;
70106;SDS011;57473;37.508;15.080;2023-03-21T10:56:28;9.68;;;5.78;;
70106;SDS011;57473;37.508;15.080;2023-03-21T10:59:02;8.13;;;5.53;;
70106;SDS011;57473;37.508;15.080;2023-03-21T11:04:09;12.45;;;7.07;;
70106;SDS011;57473;37.508;15.080;2023-03-21T11:06:51;9.90;;;5.30;;
70106;SDS011;57473;37.508;15.080;2023-03-21T11:09:46;11.45;;;6.45;;
70106;SDS011;57473;37.508;15.080;2023-03-21T11:12:31;7.82;;;5.30;;
70106;SDS011;57473;37.508;15.080;2023-03-21T11:15:23;7.13;;;5.38;;
70106;SDS011;57473;37.508;15.080;2023-03-21T11:21:06;6.65;;;5.07;;
70106;SDS011;57473;37.508;15.080;2023-03-21T11:23:40;8.77;;;4.57;;
70106;SDS011;57473;37.508;15.080;2023-03-21T11:26:18;10.90;;;5.38;;
70106;SDS011;57473;37.508;15.080;2023-03-21T11:28:49;7.68;;;4.60;;
70106;SDS011;57473;37.508;15.080;2023-03-21T11:31:17;9.98;;;5.22;;
70106;SDS011;57473;37.508;15.080;2023-03-21T11:33:55;8.68;;;5.80;;
70106;SDS011;57473;37.508;15.080;2023-03-21T11:36:26;8.18;;;4.43;;
70106;SDS011;57473;37.508;15.080;2023-03-21T11:39:11;3.72;;;2.80;;
70106;SDS011;57473;37.508;15.080;2023-03-21T11:44:22;6.18;;;4.53;;
70106;SDS011;57473;37.508;15.080;2023-03-21T11:46:52;8.45;;;5.63;;
70106;SDS011;57473;37.508;15.080;2023-03-21T11:49:21;11.80;;;5.97;;
70106;SDS011;57473;37.508;15.080;2023-03-21T11:52:02;8.30;;;5.15;;
70106;SDS011;57473;37.508;15.080;2023-03-21T11:55:23;8.70;;;4.47;;
70106;SDS011;57473;37.508;15.080;2023-03-21T11:58:02;8.32;;;4.20;;
70106;SDS011;57473;37.508;15.080;2023-03-21T12:00:51;8.20;;;4.40;;
70106;SDS011;57473;37.508;15.080;2023-03-21T12:26:11;8.82;;;5.47;;
70106;SDS011;57473;37.508;15.080;2023-03-21T12:40:08;9.90;;;5.70;;
70106;SDS011;57473;37.508;15.080;2023-03-21T12:43:10;8.40;;;5.65;;
70106;SDS011;57473;37.508;15.080;2023-03-21T12:45:43;7.80;;;5.97;;
70106;SDS011;57473;37.508;15.080;2023-03-21T12:51:22;12.63;;;6.65;;
70106;SDS011;57473;37.508;15.080;2023-03-21T12:59:21;18.15;;;8.35;;
70106;SDS011;57473;37.508;15.080;2023-03-21T13:02:25;14.25;;;8.73;;
70106;SDS011;57473;37.508;15.080;2023-03-21T13:05:00;15.50;;;8.73;;
70106;SDS011;57473;37.508;15.080;2023-03-21T13:07:50;12.95;;;8.25;;
70106;SDS011;57473;37.508;15.080;2023-03-21T13:10:24;12.50;;;7.75;;
70106;SDS011;57473;37.508;15.080;2023-03-21T13:18:30;11.77;;;7.20;;
70106;SDS011;57473;37.508;15.080;2023-03-21T13:21:10;12.10;;;7.47;;
70106;SDS011;57473;37.508;15.080;2023-03-21T13:23:58;10.82;;;6.90;;
70106;SDS011;57473;37.508;15.080;2023-03-21T13:26:40;11.15;;;6.63;;
70106;SDS011;57473;37.508;15.080;2023-03-21T13:29:34;11.15;;;7.40;;
70106;SDS011;57473;37.508;15.080;2023-03-21T13:34:53;10.13;;;6.18;;
70106;SDS011;57473;37.508;15.080;2023-03-21T13:37:32;9.35;;;6.18;;
70106;SDS011;57473;37.508;15.080;2023-03-21T13:40:05;10.77;;;5.93;;
70106;SDS011;57473;37.508;15.080;2023-03-21T13:42:49;10.27;;;6.13;;
70106;SDS011;57473;37.508;15.080;2023-03-21T13:45:24;10.43;;;6.32;;
70106;SDS011;57473;37.508;15.080;2023-03-21T13:47:56;10.65;;;6.93;;
70106;SDS011;57473;37.508;15.080;2023-03-21T13:50:53;11.73;;;7.15;;
70106;SDS011;57473;37.508;15.080;2023-03-21T13:53:31;12.80;;;6.88;;
70106;SDS011;57473;37.508;15.080;2023-03-21T14:01:30;9.73;;;5.25;;
70106;SDS011;57473;37.508;15.080;2023-03-21T14:03:59;8.85;;;5.07;;
70106;SDS011;57473;37.508;15.080;2023-03-21T14:11:47;9.68;;;3.83;;
70106;SDS011;57473;37.508;15.080;2023-03-21T14:14:22;7.60;;;4.13;;
70106;SDS011;57473;37.508;15.080;2023-03-21T14:16:55;8.23;;;5.18;;
70106;SDS011;57473;37.508;15.080;2023-03-21T14:19:27;8.88;;;5.85;;
70106;SDS011;57473;37.508;15.080;2023-03-21T14:21:57;9.25;;;6.40;;
70106;SDS011;57473;37.508;15.080;2023-03-21T14:24:24;10.88;;;6.80;;
70106;SDS011;57473;37.508;15.080;2023-03-21T14:26:52;11.82;;;7.72;;
70106;SDS011;57473;37.508;15.080;2023-03-21T14:29:30;13.45;;;7.97;;
70106;SDS011;57473;37.508;15.080;2023-03-21T14:32:00;14.60;;;8.43;;
70106;SDS011;57473;37.508;15.080;2023-03-21T14:34:30;12.43;;;8.98;;
70106;SDS011;57473;37.508;15.080;2023-03-21T14:37:00;14.25;;;8.70;;
70106;SDS011;57473;37.508;15.080;2023-03-21T14:39:31;12.80;;;8.68;;
70106;SDS011;57473;37.508;15.080;2023-03-21T14:42:03;12.70;;;8.47;;
70106;SDS011;57473;37.508;15.080;2023-03-21T14:47:22;14.07;;;9.80;;
70106;SDS011;57473;37.508;15.080;2023-03-21T14:49:51;19.08;;;9.95;;
70106;SDS011;57473;37.508;15.080;2023-03-21T14:52:29;14.05;;;9.73;;
70106;SDS011;57473;37.508;15.080;2023-03-21T14:54:59;15.48;;;10.00;;
70106;SDS011;57473;37.508;15.080;2023-03-21T14:57:29;15.85;;;10.63;;
70106;SDS011;57473;37.508;15.080;2023-03-21T14:59:59;16.10;;;10.57;;
70106;SDS011;57473;37.508;15.080;2023-03-21T15:02:40;12.27;;;9.85;;
70106;SDS011;57473;37.508;15.080;2023-03-21T15:05:16;17.35;;;10.95;;
70106;SDS011;57473;37.508;15.080;2023-03-21T15:07:51;14.63;;;10.48;;
70106;SDS011;57473;37.508;15.080;2023-03-21T15:10:20;14.23;;;9.40;;
70106;SDS011;57473;37.508;15.080;2023-03-21T15:12:49;14.65;;;10.15;;
70106;SDS011;57473;37.508;15.080;2023-03-21T15:15:22;15.50;;;10.80;;
70106;SDS011;57473;37.508;15.080;2023-03-21T15:17:53;17.00;;;10.02;;
70106;SDS011;57473;37.508;15.080;2023-03-21T15:20:25;22.02;;;10.75;;
70106;SDS011;57473;37.508;15.080;2023-03-21T15:22:59;17.70;;;9.23;;
70106;SDS011;57473;37.508;15.080;2023-03-21T15:25:43;15.85;;;10.65;;
70106;SDS011;57473;37.508;15.080;2023-03-21T15:28:12;20.60;;;12.05;;
70106;SDS011;57473;37.508;15.080;2023-03-21T15:30:45;17.67;;;11.07;;
70106;SDS011;57473;37.508;15.080;2023-03-21T15:33:17;21.83;;;10.10;;
70106;SDS011;57473;37.508;15.080;2023-03-21T15:35:48;14.18;;;10.07;;
70106;SDS011;57473;37.508;15.080;2023-03-21T15:38:27;16.40;;;9.30;;
70106;SDS011;57473;37.508;15.080;2023-03-21T15:43:48;15.32;;;8.75;;
70106;SDS011;57473;37.508;15.080;2023-03-21T15:49:18;12.50;;;8.80;;
70106;SDS011;57473;37.508;15.080;2023-03-21T15:52:00;17.92;;;12.02;;
70106;SDS011;57473;37.508;15.080;2023-03-21T15:54:30;18.30;;;9.10;;
70106;SDS011;57473;37.508;15.080;2023-03-21T15:57:17;17.83;;;8.05;;
70106;SDS011;57473;37.508;15.080;2023-03-21T15:59:57;18.60;;;8.98;;
70106;SDS011;57473;37.508;15.080;2023-03-21T16:02:38;14.70;;;8.20;;
70106;SDS011;57473;37.508;15.080;2023-03-21T16:07:57;19.38;;;7.82;;
70106;SDS011;57473;37.508;15.080;2023-03-21T16:10:32;17.40;;;7.63;;
70106;SDS011;57473;37.508;15.080;2023-03-21T16:15:30;14.60;;;8.23;;
70106;SDS011;57473;37.508;15.080;2023-03-21T16:17:59;13.73;;;7.03;;
70106;SDS011;57473;37.508;15.080;2023-03-21T16:20:37;12.93;;;6.53;;
70106;SDS011;57473;37.508;15.080;2023-03-21T16:23:09;15.23;;;6.93;;
70106;SDS011;57473;37.508;15.080;2023-03-21T16:25:37;15.93;;;6.70;;
70106;SDS011;57473;37.508;15.080;2023-03-21T16:28:09;17.85;;;7.15;;
70106;SDS011;57473;37.508;15.080;2023-03-21T16:30:40;10.90;;;6.13;;
70106;SDS011;57473;37.508;15.080;2023-03-21T16:33:10;17.23;;;7.30;;
70106;SDS011;57473;37.508;15.080;2023-03-21T16:35:39;15.10;;;7.00;;
70106;SDS011;57473;37.508;15.080;2023-03-21T16:38:08;16.63;;;7.68;;
70106;SDS011;57473;37.508;15.080;2023-03-21T16:40:38;16.17;;;6.93;;
70106;SDS011;57473;37.508;15.080;2023-03-21T16:43:09;23.73;;;7.40;;
70106;SDS011;57473;37.508;15.080;2023-03-21T16:45:36;12.05;;;6.55;;
70106;SDS011;57473;37.508;15.080;2023-03-21T16:48:04;13.27;;;6.95;;
70106;SDS011;57473;37.508;15.080;2023-03-21T16:50:41;11.75;;;6.10;;
70106;SDS011;57473;37.508;15.080;2023-03-21T16:53:12;16.50;;;6.38;;
70106;SDS011;57473;37.508;15.080;2023-03-21T16:55:39;17.00;;;6.88;;
70106;SDS011;57473;37.508;15.080;2023-03-21T16:58:07;14.85;;;6.55;;
70106;SDS011;57473;37.508;15.080;2023-03-21T17:00:37;13.98;;;6.60;;
70106;SDS011;57473;37.508;15.080;2023-03-21T17:03:13;16.77;;;7.35;;
70106;SDS011;57473;37.508;15.080;2023-03-21T17:05:45;16.17;;;6.90;;
70106;SDS011;57473;37.508;15.080;2023-03-21T17:08:16;21.15;;;6.53;;
70106;SDS011;57473;37.508;15.080;2023-03-21T17:10:45;14.23;;;6.43;;
70106;SDS011;57473;37.508;15.080;2023-03-21T17:13:12;12.23;;;6.20;;
70106;SDS011;57473;37.508;15.080;2023-03-21T17:15:40;14.73;;;7.15;;